sensor_id;sensor_type;location;lat;lon;timestamp;temperature;humidity
40636;DHT22;26642;55.766;37.828;2023-06-10T00:01:43;20.40;51.40
40636;DHT22;26642;55.766;37.828;2023-06-10T00:04:14;20.30;51.50
40636;DHT22;26642;55.766;37.828;2023-06-10T00:06:40;20.30;51.50
40636;DHT22;26642;55.766;37.828;2023-06-10T00:09:07;20.30;51.50
40636;DHT22;26642;55.766;37.828;2023-06-10T00:11:37;20.20;51.30
40636;DHT22;26642;55.766;37.828;2023-06-10T00:14:03;20.20;51.40
40636;DHT22;26642;55.766;37.828;2023-06-10T00:16:29;20.20;51.50
40636;DHT22;26642;55.766;37.828;2023-06-10T00:18:56;20.10;51.50
40636;DHT22;26642;55.766;37.828;2023-06-10T00:21:30;20.10;51.60
40636;DHT22;26642;55.766;37.828;2023-06-10T00:24:04;20.10;51.70
40636;DHT22;26642;55.766;37.828;2023-06-10T00:26:31;20.10;51.60
40636;DHT22;26642;55.766;37.828;2023-06-10T00:28:58;20.10;51.70
40636;DHT22;26642;55.766;37.828;2023-06-10T00:31:24;20.00;51.60
40636;DHT22;26642;55.766;37.828;2023-06-10T00:33:52;20.00;51.80
40636;DHT22;26642;55.766;37.828;2023-06-10T00:36:18;20.00;51.80
40636;DHT22;26642;55.766;37.828;2023-06-10T00:38:44;20.00;51.70
40636;DHT22;26642;55.766;37.828;2023-06-10T00:41:10;20.00;51.80
40636;DHT22;26642;55.766;37.828;2023-06-10T00:43:36;19.90;51.90
40636;DHT22;26642;55.766;37.828;2023-06-10T00:46:02;19.90;51.90
40636;DHT22;26642;55.766;37.828;2023-06-10T00:48:30;19.90;51.80
40636;DHT22;26642;55.766;37.828;2023-06-10T00:50:56;19.80;51.90
40636;DHT22;26642;55.766;37.828;2023-06-10T00:53:23;19.80;52.10
40636;DHT22;26642;55.766;37.828;2023-06-10T00:55:50;19.80;52.10
40636;DHT22;26642;55.766;37.828;2023-06-10T00:58:16;19.80;52.00
40636;DHT22;26642;55.766;37.828;2023-06-10T01:00:42;19.80;52.00
40636;DHT22;26642;55.766;37.828;2023-06-10T01:03:10;19.80;52.10
40636;DHT22;26642;55.766;37.828;2023-06-10T01:05:40;19.80;52.10
40636;DHT22;26642;55.766;37.828;2023-06-10T01:08:24;19.80;52.30
40636;DHT22;26642;55.766;37.828;2023-06-10T01:10:57;19.70;52.20
40636;DHT22;26642;55.766;37.828;2023-06-10T01:13:25;19.70;52.30
40636;DHT22;26642;55.766;37.828;2023-06-10T01:15:58;19.60;52.20
40636;DHT22;26642;55.766;37.828;2023-06-10T01:18:30;19.70;52.40
40636;DHT22;26642;55.766;37.828;2023-06-10T01:20:57;19.60;52.30
40636;DHT22;26642;55.766;37.828;2023-06-10T01:23:24;19.70;52.40
40636;DHT22;26642;55.766;37.828;2023-06-10T01:25:56;19.60;52.40
40636;DHT22;26642;55.766;37.828;2023-06-10T01:28:36;19.70;52.40
40636;DHT22;26642;55.766;37.828;2023-06-10T01:33:32;19.70;52.30
40636;DHT22;26642;55.766;37.828;2023-06-10T01:35:59;19.70;52.30
40636;DHT22;26642;55.766;37.828;2023-06-10T01:38:27;19.80;52.30
40636;DHT22;26642;55.766;37.828;2023-06-10T01:40:55;19.80;52.30
40636;DHT22;26642;55.766;37.828;2023-06-10T01:43:21;19.80;52.30
40636;DHT22;26642;55.766;37.828;2023-06-10T01:45:47;19.80;52.20
40636;DHT22;26642;55.766;37.828;2023-06-10T01:48:13;19.70;52.20
40636;DHT22;26642;55.766;37.828;2023-06-10T01:50:39;19.70;52.30
40636;DHT22;26642;55.766;37.828;2023-06-10T01:53:05;19.70;52.50
40636;DHT22;26642;55.766;37.828;2023-06-10T01:55:31;19.60;52.40
40636;DHT22;26642;55.766;37.828;2023-06-10T01:57:57;19.70;52.40
40636;DHT22;26642;55.766;37.828;2023-06-10T02:00:23;19.60;52.60
40636;DHT22;26642;55.766;37.828;2023-06-10T02:02:49;19.60;52.50
40636;DHT22;26642;55.766;37.828;2023-06-10T02:05:15;19.60;53.20
40636;DHT22;26642;55.766;37.828;2023-06-10T02:07:41;19.60;52.70
40636;DHT22;26642;55.766;37.828;2023-06-10T02:10:08;19.60;52.70
40636;DHT22;26642;55.766;37.828;2023-06-10T02:12:34;19.60;52.70
40636;DHT22;26642;55.766;37.828;2023-06-10T02:15:00;19.60;52.60
40636;DHT22;26642;55.766;37.828;2023-06-10T02:17:26;19.60;52.40
40636;DHT22;26642;55.766;37.828;2023-06-10T02:19:52;19.70;52.50
40636;DHT22;26642;55.766;37.828;2023-06-10T02:22:22;19.70;52.50
40636;DHT22;26642;55.766;37.828;2023-06-10T02:24:49;19.80;52.40
40636;DHT22;26642;55.766;37.828;2023-06-10T02:27:15;19.80;52.10
40636;DHT22;26642;55.766;37.828;2023-06-10T02:29:42;19.90;52.00
40636;DHT22;26642;55.766;37.828;2023-06-10T02:32:10;20.00;52.00
40636;DHT22;26642;55.766;37.828;2023-06-10T02:34:36;20.00;51.90
40636;DHT22;26642;55.766;37.828;2023-06-10T02:37:03;20.10;51.70
40636;DHT22;26642;55.766;37.828;2023-06-10T02:39:30;20.20;51.70
40636;DHT22;26642;55.766;37.828;2023-06-10T02:41:57;20.30;51.50
40636;DHT22;26642;55.766;37.828;2023-06-10T02:44:23;20.40;51.30
40636;DHT22;26642;55.766;37.828;2023-06-10T02:46:49;20.50;51.00
40636;DHT22;26642;55.766;37.828;2023-06-10T02:49:16;20.60;50.80
40636;DHT22;26642;55.766;37.828;2023-06-10T02:51:44;20.60;50.70
40636;DHT22;26642;55.766;37.828;2023-06-10T02:54:10;20.70;50.40
40636;DHT22;26642;55.766;37.828;2023-06-10T02:56:36;20.80;50.30
40636;DHT22;26642;55.766;37.828;2023-06-10T02:59:05;20.80;49.80
40636;DHT22;26642;55.766;37.828;2023-06-10T03:01:33;20.80;49.60
40636;DHT22;26642;55.766;37.828;2023-06-10T03:04:05;20.90;49.30
40636;DHT22;26642;55.766;37.828;2023-06-10T03:06:33;20.90;50.00
40636;DHT22;26642;55.766;37.828;2023-06-10T03:09:10;20.90;49.40
40636;DHT22;26642;55.766;37.828;2023-06-10T03:11:38;20.90;49.20
40636;DHT22;26642;55.766;37.828;2023-06-10T03:14:04;20.90;49.20
40636;DHT22;26642;55.766;37.828;2023-06-10T03:16:31;20.90;49.00
40636;DHT22;26642;55.766;37.828;2023-06-10T03:18:58;20.90;48.90
40636;DHT22;26642;55.766;37.828;2023-06-10T03:21:24;20.90;48.80
40636;DHT22;26642;55.766;37.828;2023-06-10T03:23:51;20.90;48.60
40636;DHT22;26642;55.766;37.828;2023-06-10T03:26:17;21.00;48.50
40636;DHT22;26642;55.766;37.828;2023-06-10T03:28:45;21.10;48.30
40636;DHT22;26642;55.766;37.828;2023-06-10T03:31:11;21.20;48.10
40636;DHT22;26642;55.766;37.828;2023-06-10T03:33:37;21.30;48.10
40636;DHT22;26642;55.766;37.828;2023-06-10T03:36:05;21.30;47.90
40636;DHT22;26642;55.766;37.828;2023-06-10T03:38:31;21.40;47.80
40636;DHT22;26642;55.766;37.828;2023-06-10T03:40:57;21.50;47.50
40636;DHT22;26642;55.766;37.828;2023-06-10T03:43:23;21.60;47.40
40636;DHT22;26642;55.766;37.828;2023-06-10T03:45:51;21.80;47.60
40636;DHT22;26642;55.766;37.828;2023-06-10T03:48:18;21.90;47.20
40636;DHT22;26642;55.766;37.828;2023-06-10T03:50:48;22.00;47.00
40636;DHT22;26642;55.766;37.828;2023-06-10T03:53:16;22.10;46.90
40636;DHT22;26642;55.766;37.828;2023-06-10T03:55:43;22.20;46.70
40636;DHT22;26642;55.766;37.828;2023-06-10T03:58:10;22.30;46.40
40636;DHT22;26642;55.766;37.828;2023-06-10T04:00:39;22.40;46.00
40636;DHT22;26642;55.766;37.828;2023-06-10T04:03:10;22.50;46.30
40636;DHT22;26642;55.766;37.828;2023-06-10T04:05:43;22.60;46.00
40636;DHT22;26642;55.766;37.828;2023-06-10T04:08:09;22.70;45.90
40636;DHT22;26642;55.766;37.828;2023-06-10T04:10:35;22.90;45.70
40636;DHT22;26642;55.766;37.828;2023-06-10T04:13:02;23.00;45.30
40636;DHT22;26642;55.766;37.828;2023-06-10T04:15:34;23.10;45.20
40636;DHT22;26642;55.766;37.828;2023-06-10T04:18:05;23.20;44.80
40636;DHT22;26642;55.766;37.828;2023-06-10T04:20:31;23.30;44.90
40636;DHT22;26642;55.766;37.828;2023-06-10T04:22:57;23.40;44.40
40636;DHT22;26642;55.766;37.828;2023-06-10T04:25:25;23.40;44.30
40636;DHT22;26642;55.766;37.828;2023-06-10T04:27:52;23.50;44.00
40636;DHT22;26642;55.766;37.828;2023-06-10T04:30:18;23.60;43.60
40636;DHT22;26642;55.766;37.828;2023-06-10T04:32:44;23.70;43.40
40636;DHT22;26642;55.766;37.828;2023-06-10T04:35:15;23.70;43.30
40636;DHT22;26642;55.766;37.828;2023-06-10T04:37:42;23.70;42.70
40636;DHT22;26642;55.766;37.828;2023-06-10T04:40:09;23.70;42.40
40636;DHT22;26642;55.766;37.828;2023-06-10T04:42:36;23.80;42.30
40636;DHT22;26642;55.766;37.828;2023-06-10T04:45:03;23.80;42.10
40636;DHT22;26642;55.766;37.828;2023-06-10T04:47:31;23.80;41.90
40636;DHT22;26642;55.766;37.828;2023-06-10T04:49:59;23.90;42.20
40636;DHT22;26642;55.766;37.828;2023-06-10T04:52:26;24.00;41.80
40636;DHT22;26642;55.766;37.828;2023-06-10T04:54:53;24.00;41.60
40636;DHT22;26642;55.766;37.828;2023-06-10T04:57:20;24.10;41.50
40636;DHT22;26642;55.766;37.828;2023-06-10T04:59:46;24.20;41.60
40636;DHT22;26642;55.766;37.828;2023-06-10T05:02:12;24.30;41.90
40636;DHT22;26642;55.766;37.828;2023-06-10T05:04:39;24.40;41.50
40636;DHT22;26642;55.766;37.828;2023-06-10T05:07:05;24.40;41.40
40636;DHT22;26642;55.766;37.828;2023-06-10T05:09:31;24.50;41.00
40636;DHT22;26642;55.766;37.828;2023-06-10T05:11:58;24.60;40.80
40636;DHT22;26642;55.766;37.828;2023-06-10T05:14:25;24.70;40.50
40636;DHT22;26642;55.766;37.828;2023-06-10T05:16:51;24.70;40.10
40636;DHT22;26642;55.766;37.828;2023-06-10T05:19:17;24.80;40.20
40636;DHT22;26642;55.766;37.828;2023-06-10T05:21:45;24.80;40.20
40636;DHT22;26642;55.766;37.828;2023-06-10T05:24:11;24.80;40.10
40636;DHT22;26642;55.766;37.828;2023-06-10T05:26:37;24.80;40.20
40636;DHT22;26642;55.766;37.828;2023-06-10T05:29:04;24.90;40.00
40636;DHT22;26642;55.766;37.828;2023-06-10T05:31:30;24.90;39.90
40636;DHT22;26642;55.766;37.828;2023-06-10T05:33:57;25.00;39.50
40636;DHT22;26642;55.766;37.828;2023-06-10T05:36:23;24.90;39.80
40636;DHT22;26642;55.766;37.828;2023-06-10T05:38:50;25.00;39.80
40636;DHT22;26642;55.766;37.828;2023-06-10T05:41:16;25.00;39.80
40636;DHT22;26642;55.766;37.828;2023-06-10T05:43:42;25.00;39.60
40636;DHT22;26642;55.766;37.828;2023-06-10T05:46:08;25.00;39.70
40636;DHT22;26642;55.766;37.828;2023-06-10T05:48:34;25.10;39.90
40636;DHT22;26642;55.766;37.828;2023-06-10T05:51:00;25.10;39.70
40636;DHT22;26642;55.766;37.828;2023-06-10T05:53:26;25.10;39.70
40636;DHT22;26642;55.766;37.828;2023-06-10T05:55:52;25.00;39.40
40636;DHT22;26642;55.766;37.828;2023-06-10T05:58:23;25.00;39.40
40636;DHT22;26642;55.766;37.828;2023-06-10T06:00:50;24.90;40.20
40636;DHT22;26642;55.766;37.828;2023-06-10T06:03:16;25.00;40.10
40636;DHT22;26642;55.766;37.828;2023-06-10T06:05:42;24.90;40.20
40636;DHT22;26642;55.766;37.828;2023-06-10T06:08:09;25.00;40.20
40636;DHT22;26642;55.766;37.828;2023-06-10T06:10:35;25.10;40.10
40636;DHT22;26642;55.766;37.828;2023-06-10T06:13:02;25.00;39.70
40636;DHT22;26642;55.766;37.828;2023-06-10T06:15:28;25.00;39.90
40636;DHT22;26642;55.766;37.828;2023-06-10T06:17:54;25.10;40.10
40636;DHT22;26642;55.766;37.828;2023-06-10T06:20:22;25.20;40.10
40636;DHT22;26642;55.766;37.828;2023-06-10T06:22:48;25.20;40.30
40636;DHT22;26642;55.766;37.828;2023-06-10T06:25:14;25.30;40.30
40636;DHT22;26642;55.766;37.828;2023-06-10T06:27:41;25.40;39.90
40636;DHT22;26642;55.766;37.828;2023-06-10T06:30:07;25.40;39.50
40636;DHT22;26642;55.766;37.828;2023-06-10T06:32:33;25.40;39.60
40636;DHT22;26642;55.766;37.828;2023-06-10T06:34:59;25.50;39.70
40636;DHT22;26642;55.766;37.828;2023-06-10T06:37:26;25.50;39.90
40636;DHT22;26642;55.766;37.828;2023-06-10T06:40:03;25.60;39.70
40636;DHT22;26642;55.766;37.828;2023-06-10T06:42:29;25.50;39.40
40636;DHT22;26642;55.766;37.828;2023-06-10T06:45:10;25.50;39.50
40636;DHT22;26642;55.766;37.828;2023-06-10T06:47:37;25.60;39.10
40636;DHT22;26642;55.766;37.828;2023-06-10T06:50:03;25.60;39.30
40636;DHT22;26642;55.766;37.828;2023-06-10T06:52:29;25.60;38.90
40636;DHT22;26642;55.766;37.828;2023-06-10T06:54:55;25.60;38.60
40636;DHT22;26642;55.766;37.828;2023-06-10T06:57:21;25.60;38.50
40636;DHT22;26642;55.766;37.828;2023-06-10T06:59:48;25.70;39.40
40636;DHT22;26642;55.766;37.828;2023-06-10T07:02:14;25.60;39.60
40636;DHT22;26642;55.766;37.828;2023-06-10T07:04:40;25.60;38.60
40636;DHT22;26642;55.766;37.828;2023-06-10T07:07:07;25.50;38.70
40636;DHT22;26642;55.766;37.828;2023-06-10T07:09:34;25.30;38.20
40636;DHT22;26642;55.766;37.828;2023-06-10T07:12:00;25.10;38.40
40636;DHT22;26642;55.766;37.828;2023-06-10T07:14:26;25.00;38.70
40636;DHT22;26642;55.766;37.828;2023-06-10T07:16:52;25.00;39.20
40636;DHT22;26642;55.766;37.828;2023-06-10T07:19:18;25.00;38.60
40636;DHT22;26642;55.766;37.828;2023-06-10T07:21:44;25.00;38.60
40636;DHT22;26642;55.766;37.828;2023-06-10T07:24:10;25.10;38.70
40636;DHT22;26642;55.766;37.828;2023-06-10T07:26:36;25.00;38.40
40636;DHT22;26642;55.766;37.828;2023-06-10T07:29:02;24.90;38.40
40636;DHT22;26642;55.766;37.828;2023-06-10T07:31:28;24.80;38.40
40636;DHT22;26642;55.766;37.828;2023-06-10T07:33:54;24.70;38.60
40636;DHT22;26642;55.766;37.828;2023-06-10T07:36:20;24.60;38.80
40636;DHT22;26642;55.766;37.828;2023-06-10T07:38:46;24.50;38.70
40636;DHT22;26642;55.766;37.828;2023-06-10T07:41:12;24.30;39.00
40636;DHT22;26642;55.766;37.828;2023-06-10T07:43:38;24.30;39.10
40636;DHT22;26642;55.766;37.828;2023-06-10T07:46:04;24.40;39.20
40636;DHT22;26642;55.766;37.828;2023-06-10T07:48:31;24.40;39.20
40636;DHT22;26642;55.766;37.828;2023-06-10T07:50:57;24.30;38.90
40636;DHT22;26642;55.766;37.828;2023-06-10T07:53:23;24.20;38.00
40636;DHT22;26642;55.766;37.828;2023-06-10T07:55:49;23.90;38.60
40636;DHT22;26642;55.766;37.828;2023-06-10T07:58:15;23.90;38.50
40636;DHT22;26642;55.766;37.828;2023-06-10T08:00:41;23.80;38.30
40636;DHT22;26642;55.766;37.828;2023-06-10T08:03:07;23.70;38.70
40636;DHT22;26642;55.766;37.828;2023-06-10T08:05:33;23.70;38.80
40636;DHT22;26642;55.766;37.828;2023-06-10T08:07:59;23.70;38.80
40636;DHT22;26642;55.766;37.828;2023-06-10T08:10:25;23.70;38.70
40636;DHT22;26642;55.766;37.828;2023-06-10T08:12:51;23.70;38.70
40636;DHT22;26642;55.766;37.828;2023-06-10T08:15:17;23.70;38.30
40636;DHT22;26642;55.766;37.828;2023-06-10T08:17:43;23.60;38.40
40636;DHT22;26642;55.766;37.828;2023-06-10T08:20:10;23.70;38.70
40636;DHT22;26642;55.766;37.828;2023-06-10T08:22:36;23.70;39.00
40636;DHT22;26642;55.766;37.828;2023-06-10T08:25:02;23.80;39.30
40636;DHT22;26642;55.766;37.828;2023-06-10T08:27:28;23.70;39.00
40636;DHT22;26642;55.766;37.828;2023-06-10T08:29:54;23.60;38.80
40636;DHT22;26642;55.766;37.828;2023-06-10T08:32:19;23.50;38.90
40636;DHT22;26642;55.766;37.828;2023-06-10T08:34:45;23.40;39.00
40636;DHT22;26642;55.766;37.828;2023-06-10T08:37:11;23.50;39.00
40636;DHT22;26642;55.766;37.828;2023-06-10T08:39:37;23.40;38.60
40636;DHT22;26642;55.766;37.828;2023-06-10T08:44:46;23.30;38.90
40636;DHT22;26642;55.766;37.828;2023-06-10T08:47:17;23.20;39.20
40636;DHT22;26642;55.766;37.828;2023-06-10T08:49:44;23.20;38.50
40636;DHT22;26642;55.766;37.828;2023-06-10T08:52:16;23.10;38.50
40636;DHT22;26642;55.766;37.828;2023-06-10T08:55:00;23.00;38.20
40636;DHT22;26642;55.766;37.828;2023-06-10T08:57:28;23.00;38.80
40636;DHT22;26642;55.766;37.828;2023-06-10T08:59:57;23.00;38.60
40636;DHT22;26642;55.766;37.828;2023-06-10T09:02:24;23.00;38.70
40636;DHT22;26642;55.766;37.828;2023-06-10T09:04:51;23.00;38.80
40636;DHT22;26642;55.766;37.828;2023-06-10T09:07:18;23.00;38.80
40636;DHT22;26642;55.766;37.828;2023-06-10T09:09:44;22.90;38.80
40636;DHT22;26642;55.766;37.828;2023-06-10T09:12:12;22.80;38.60
40636;DHT22;26642;55.766;37.828;2023-06-10T09:14:39;22.80;38.90
40636;DHT22;26642;55.766;37.828;2023-06-10T09:17:06;22.80;38.80
40636;DHT22;26642;55.766;37.828;2023-06-10T09:19:32;22.80;39.00
40636;DHT22;26642;55.766;37.828;2023-06-10T09:21:59;22.80;38.60
40636;DHT22;26642;55.766;37.828;2023-06-10T09:24:25;22.80;38.60
40636;DHT22;26642;55.766;37.828;2023-06-10T09:27:07;22.70;37.90
40636;DHT22;26642;55.766;37.828;2023-06-10T09:29:53;22.80;38.30
40636;DHT22;26642;55.766;37.828;2023-06-10T09:32:20;22.80;38.30
40636;DHT22;26642;55.766;37.828;2023-06-10T09:34:47;22.80;37.90
40636;DHT22;26642;55.766;37.828;2023-06-10T09:37:19;22.80;38.30
40636;DHT22;26642;55.766;37.828;2023-06-10T09:40:03;22.90;38.50
40636;DHT22;26642;55.766;37.828;2023-06-10T09:42:34;22.80;38.20
40636;DHT22;26642;55.766;37.828;2023-06-10T09:45:02;22.60;38.40
40636;DHT22;26642;55.766;37.828;2023-06-10T09:47:28;22.70;39.00
40636;DHT22;26642;55.766;37.828;2023-06-10T09:49:54;22.60;38.80
40636;DHT22;26642;55.766;37.828;2023-06-10T09:52:27;22.60;38.70
40636;DHT22;26642;55.766;37.828;2023-06-10T09:55:00;22.50;38.80
40636;DHT22;26642;55.766;37.828;2023-06-10T09:57:31;22.50;38.50
40636;DHT22;26642;55.766;37.828;2023-06-10T09:59:58;22.50;38.60
40636;DHT22;26642;55.766;37.828;2023-06-10T10:02:24;22.50;38.60
40636;DHT22;26642;55.766;37.828;2023-06-10T10:04:50;22.50;38.50
40636;DHT22;26642;55.766;37.828;2023-06-10T10:07:16;22.40;38.40
40636;DHT22;26642;55.766;37.828;2023-06-10T10:09:42;22.50;38.90
40636;DHT22;26642;55.766;37.828;2023-06-10T10:12:13;22.50;39.40
40636;DHT22;26642;55.766;37.828;2023-06-10T10:14:45;22.60;39.20
40636;DHT22;26642;55.766;37.828;2023-06-10T10:17:14;22.50;38.90
40636;DHT22;26642;55.766;37.828;2023-06-10T10:19:46;22.50;38.70
40636;DHT22;26642;55.766;37.828;2023-06-10T10:22:18;22.50;38.60
40636;DHT22;26642;55.766;37.828;2023-06-10T10:24:53;22.50;39.00
40636;DHT22;26642;55.766;37.828;2023-06-10T10:30:17;22.40;38.80
40636;DHT22;26642;55.766;37.828;2023-06-10T10:33:04;22.30;38.80
40636;DHT22;26642;55.766;37.828;2023-06-10T10:35:32;22.40;39.00
40636;DHT22;26642;55.766;37.828;2023-06-10T10:37:59;22.40;38.80
40636;DHT22;26642;55.766;37.828;2023-06-10T10:40:27;22.40;38.50
40636;DHT22;26642;55.766;37.828;2023-06-10T10:42:56;22.40;38.30
40636;DHT22;26642;55.766;37.828;2023-06-10T10:45:24;22.30;37.50
40636;DHT22;26642;55.766;37.828;2023-06-10T10:47:53;22.20;37.80
40636;DHT22;26642;55.766;37.828;2023-06-10T10:50:21;22.20;38.20
40636;DHT22;26642;55.766;37.828;2023-06-10T10:55:25;22.30;38.20
40636;DHT22;26642;55.766;37.828;2023-06-10T10:57:59;22.20;38.10
40636;DHT22;26642;55.766;37.828;2023-06-10T11:00:38;22.20;38.30
40636;DHT22;26642;55.766;37.828;2023-06-10T11:03:16;22.20;38.20
40636;DHT22;26642;55.766;37.828;2023-06-10T11:05:46;22.20;38.50
40636;DHT22;26642;55.766;37.828;2023-06-10T11:11:26;22.20;38.30
40636;DHT22;26642;55.766;37.828;2023-06-10T11:16:30;22.30;38.60
40636;DHT22;26642;55.766;37.828;2023-06-10T11:19:03;22.20;37.90
40636;DHT22;26642;55.766;37.828;2023-06-10T11:21:29;22.20;38.40
40636;DHT22;26642;55.766;37.828;2023-06-10T11:23:58;22.20;38.50
40636;DHT22;26642;55.766;37.828;2023-06-10T11:31:30;22.30;38.00
40636;DHT22;26642;55.766;37.828;2023-06-10T11:34:04;22.10;37.20
40636;DHT22;26642;55.766;37.828;2023-06-10T11:36:33;22.10;37.80
40636;DHT22;26642;55.766;37.828;2023-06-10T11:39:04;22.00;38.10
40636;DHT22;26642;55.766;37.828;2023-06-10T11:41:32;22.00;38.20
40636;DHT22;26642;55.766;37.828;2023-06-10T11:44:14;22.00;38.20
40636;DHT22;26642;55.766;37.828;2023-06-10T11:46:41;22.00;38.10
40636;DHT22;26642;55.766;37.828;2023-06-10T11:49:11;22.10;38.30
40636;DHT22;26642;55.766;37.828;2023-06-10T11:51:39;22.10;38.50
40636;DHT22;26642;55.766;37.828;2023-06-10T11:54:08;22.20;38.70
40636;DHT22;26642;55.766;37.828;2023-06-10T11:56:35;22.20;38.40
40636;DHT22;26642;55.766;37.828;2023-06-10T11:59:04;22.20;38.20
40636;DHT22;26642;55.766;37.828;2023-06-10T12:01:33;22.20;37.90
40636;DHT22;26642;55.766;37.828;2023-06-10T12:04:13;22.10;37.60
40636;DHT22;26642;55.766;37.828;2023-06-10T12:06:48;22.10;38.20
40636;DHT22;26642;55.766;37.828;2023-06-10T12:12:02;22.00;37.90
40636;DHT22;26642;55.766;37.828;2023-06-10T12:14:57;22.00;38.20
40636;DHT22;26642;55.766;37.828;2023-06-10T12:19:55;21.90;37.60
40636;DHT22;26642;55.766;37.828;2023-06-10T12:22:22;21.90;37.30
40636;DHT22;26642;55.766;37.828;2023-06-10T12:25:07;21.80;36.90
40636;DHT22;26642;55.766;37.828;2023-06-10T12:27:34;21.80;37.50
40636;DHT22;26642;55.766;37.828;2023-06-10T12:30:03;21.80;37.60
40636;DHT22;26642;55.766;37.828;2023-06-10T12:32:45;21.80;37.50
40636;DHT22;26642;55.766;37.828;2023-06-10T12:35:12;21.90;37.50
40636;DHT22;26642;55.766;37.828;2023-06-10T12:37:41;21.90;37.70
40636;DHT22;26642;55.766;37.828;2023-06-10T12:40:08;21.90;37.90
40636;DHT22;26642;55.766;37.828;2023-06-10T12:42:37;21.90;38.40
40636;DHT22;26642;55.766;37.828;2023-06-10T12:45:04;21.90;38.40
40636;DHT22;26642;55.766;37.828;2023-06-10T12:47:35;21.90;38.40
40636;DHT22;26642;55.766;37.828;2023-06-10T12:50:04;21.90;38.40
40636;DHT22;26642;55.766;37.828;2023-06-10T12:52:31;21.90;38.30
40636;DHT22;26642;55.766;37.828;2023-06-10T12:54:58;21.80;38.20
40636;DHT22;26642;55.766;37.828;2023-06-10T12:57:24;21.80;38.10
40636;DHT22;26642;55.766;37.828;2023-06-10T12:59:50;21.80;38.10
40636;DHT22;26642;55.766;37.828;2023-06-10T13:02:19;21.90;38.00
40636;DHT22;26642;55.766;37.828;2023-06-10T13:04:50;21.80;38.10
40636;DHT22;26642;55.766;37.828;2023-06-10T13:07:16;21.80;37.50
40636;DHT22;26642;55.766;37.828;2023-06-10T13:09:43;21.70;37.60
40636;DHT22;26642;55.766;37.828;2023-06-10T13:12:09;21.80;38.30
40636;DHT22;26642;55.766;37.828;2023-06-10T13:14:36;21.80;38.40
40636;DHT22;26642;55.766;37.828;2023-06-10T13:17:04;21.80;38.40
40636;DHT22;26642;55.766;37.828;2023-06-10T13:19:33;21.70;38.10
40636;DHT22;26642;55.766;37.828;2023-06-10T13:21:59;21.70;38.30
40636;DHT22;26642;55.766;37.828;2023-06-10T13:24:25;21.70;38.50
40636;DHT22;26642;55.766;37.828;2023-06-10T13:26:53;21.70;38.30
40636;DHT22;26642;55.766;37.828;2023-06-10T13:29:20;21.70;38.50
40636;DHT22;26642;55.766;37.828;2023-06-10T13:31:46;21.70;38.30
40636;DHT22;26642;55.766;37.828;2023-06-10T13:34:12;21.70;38.40
40636;DHT22;26642;55.766;37.828;2023-06-10T13:36:38;21.60;38.40
40636;DHT22;26642;55.766;37.828;2023-06-10T13:39:04;21.60;38.40
40636;DHT22;26642;55.766;37.828;2023-06-10T13:41:30;21.60;38.60
40636;DHT22;26642;55.766;37.828;2023-06-10T13:43:55;21.50;38.40
40636;DHT22;26642;55.766;37.828;2023-06-10T13:46:22;21.50;38.40
40636;DHT22;26642;55.766;37.828;2023-06-10T13:48:48;21.50;38.60
40636;DHT22;26642;55.766;37.828;2023-06-10T13:51:14;21.50;38.70
40636;DHT22;26642;55.766;37.828;2023-06-10T13:53:40;21.50;38.80
40636;DHT22;26642;55.766;37.828;2023-06-10T13:56:06;21.50;38.60
40636;DHT22;26642;55.766;37.828;2023-06-10T13:58:32;21.50;38.40
40636;DHT22;26642;55.766;37.828;2023-06-10T14:01:04;21.50;38.50
40636;DHT22;26642;55.766;37.828;2023-06-10T14:03:30;21.40;38.30
40636;DHT22;26642;55.766;37.828;2023-06-10T14:05:56;21.40;38.40
40636;DHT22;26642;55.766;37.828;2023-06-10T14:08:22;21.40;38.70
40636;DHT22;26642;55.766;37.828;2023-06-10T14:10:49;21.40;38.60
40636;DHT22;26642;55.766;37.828;2023-06-10T14:13:16;21.40;38.60
40636;DHT22;26642;55.766;37.828;2023-06-10T14:15:43;21.40;38.60
40636;DHT22;26642;55.766;37.828;2023-06-10T14:18:09;21.30;38.40
40636;DHT22;26642;55.766;37.828;2023-06-10T14:20:34;21.20;38.50
40636;DHT22;26642;55.766;37.828;2023-06-10T14:23:00;21.30;39.10
40636;DHT22;26642;55.766;37.828;2023-06-10T14:25:26;21.30;39.00
40636;DHT22;26642;55.766;37.828;2023-06-10T14:27:52;21.30;38.60
40636;DHT22;26642;55.766;37.828;2023-06-10T14:30:18;21.20;38.40
40636;DHT22;26642;55.766;37.828;2023-06-10T14:32:44;21.30;38.90
40636;DHT22;26642;55.766;37.828;2023-06-10T14:35:10;21.30;38.50
40636;DHT22;26642;55.766;37.828;2023-06-10T14:37:36;21.20;38.50
40636;DHT22;26642;55.766;37.828;2023-06-10T14:40:04;21.20;38.80
40636;DHT22;26642;55.766;37.828;2023-06-10T14:42:31;21.20;39.10
40636;DHT22;26642;55.766;37.828;2023-06-10T14:44:58;21.20;39.00
40636;DHT22;26642;55.766;37.828;2023-06-10T14:47:24;21.30;39.10
40636;DHT22;26642;55.766;37.828;2023-06-10T14:49:50;21.20;38.60
40636;DHT22;26642;55.766;37.828;2023-06-10T14:52:16;21.10;38.40
40636;DHT22;26642;55.766;37.828;2023-06-10T14:54:42;21.20;38.60
40636;DHT22;26642;55.766;37.828;2023-06-10T14:57:08;21.20;38.60
40636;DHT22;26642;55.766;37.828;2023-06-10T14:59:34;21.20;38.50
40636;DHT22;26642;55.766;37.828;2023-06-10T15:02:00;21.20;38.60
40636;DHT22;26642;55.766;37.828;2023-06-10T15:04:27;21.20;38.10
40636;DHT22;26642;55.766;37.828;2023-06-10T15:06:53;21.20;38.40
40636;DHT22;26642;55.766;37.828;2023-06-10T15:09:19;21.20;38.50
40636;DHT22;26642;55.766;37.828;2023-06-10T15:11:46;21.20;38.20
40636;DHT22;26642;55.766;37.828;2023-06-10T15:14:12;21.20;38.30
40636;DHT22;26642;55.766;37.828;2023-06-10T15:16:38;21.10;38.00
40636;DHT22;26642;55.766;37.828;2023-06-10T15:19:04;21.10;38.00
40636;DHT22;26642;55.766;37.828;2023-06-10T15:21:32;21.10;37.70
40636;DHT22;26642;55.766;37.828;2023-06-10T15:23:58;21.10;37.50
40636;DHT22;26642;55.766;37.828;2023-06-10T15:26:24;21.10;37.90
40636;DHT22;26642;55.766;37.828;2023-06-10T15:28:50;21.10;37.80
40636;DHT22;26642;55.766;37.828;2023-06-10T15:31:16;21.10;38.10
40636;DHT22;26642;55.766;37.828;2023-06-10T15:33:42;21.00;38.00
40636;DHT22;26642;55.766;37.828;2023-06-10T15:36:08;21.00;38.20
40636;DHT22;26642;55.766;37.828;2023-06-10T15:38:33;21.00;38.30
40636;DHT22;26642;55.766;37.828;2023-06-10T15:40:59;21.00;38.60
40636;DHT22;26642;55.766;37.828;2023-06-10T15:43:25;21.00;38.90
40636;DHT22;26642;55.766;37.828;2023-06-10T15:45:51;21.00;38.90